createdAt,value
2022-08-12T00:00:20.382Z,15.90
2022-08-12T00:03:07.461Z,15.93
2022-08-12T00:06:04.361Z,15.89
2022-08-12T00:08:52.298Z,15.79
2022-08-12T00:11:38.281Z,15.80
2022-08-12T00:14:24.677Z,15.62
2022-08-12T00:17:10.035Z,15.53
2022-08-12T00:19:57.351Z,15.58
2022-08-12T00:22:44.062Z,15.61
2022-08-12T00:26:00.421Z,15.46
2022-08-12T00:28:38.827Z,15.24
2022-08-12T00:31:25.341Z,15.65
2022-08-12T00:34:11.204Z,15.47
2022-08-12T00:37:02.804Z,15.63
2022-08-12T00:40:00.669Z,15.92
2022-08-12T00:42:28.840Z,16.27
2022-08-12T00:44:58.950Z,16.46
2022-08-12T00:47:27.418Z,16.62
2022-08-12T00:49:57.683Z,16.87
2022-08-12T00:52:27.369Z,16.96
2022-08-12T00:54:58.126Z,16.76
2022-08-12T00:57:28.913Z,16.89
2022-08-12T01:00:00.598Z,17.04
2022-08-12T01:02:30.868Z,17.16
2022-08-12T01:05:18.841Z,17.18
2022-08-12T01:08:07.431Z,17.06
2022-08-12T01:11:10.829Z,16.88
2022-08-12T01:13:42.523Z,17.06
2022-08-12T01:16:12.536Z,16.77
2022-08-12T01:18:41.821Z,17.05
2022-08-12T01:21:16.906Z,17.18
2022-08-12T01:24:29.498Z,16.98
2022-08-12T01:26:59.627Z,17.16
2022-08-12T01:29:33.169Z,16.97
2022-08-12T01:32:09.427Z,17.23
2022-08-12T01:34:40.615Z,17.12
2022-08-12T01:37:13.534Z,17.25
2022-08-12T01:40:30.847Z,17.18
2022-08-12T01:42:46.156Z,17.16
2022-08-12T01:45:15.735Z,17.23
2022-08-12T01:47:57.371Z,17.16
2022-08-12T01:50:33.286Z,17.16
2022-08-12T01:53:08.342Z,17.16
2022-08-12T01:55:41.609Z,17.14
2022-08-12T01:58:26.906Z,17.12
2022-08-12T02:01:01.535Z,16.86
2022-08-12T02:04:13.459Z,17.01
2022-08-12T02:07:07.202Z,17.07
2022-08-12T02:10:08.181Z,16.89
2022-08-12T02:12:49.442Z,16.92
2022-08-12T02:15:28.645Z,16.83
2022-08-12T02:18:08.755Z,16.78
2022-08-12T02:20:52.505Z,16.61
2022-08-12T02:23:27.102Z,16.70
2022-08-12T02:26:00.703Z,16.54
2022-08-12T02:28:29.563Z,16.35
2022-08-12T02:31:04.963Z,16.66
2022-08-12T02:33:33.941Z,16.58
2022-08-12T02:36:03.488Z,16.32
2022-08-12T02:38:32.591Z,16.46
2022-08-12T02:41:04.742Z,16.55
2022-08-12T02:43:38.069Z,16.13
2022-08-12T02:46:14.037Z,16.31
2022-08-12T02:48:51.260Z,16.02
2022-08-12T02:51:21.638Z,16.04
2022-08-12T02:54:04.663Z,15.98
2022-08-12T02:56:37.816Z,15.91
2022-08-12T02:59:12.258Z,15.91
2022-08-12T03:01:51.264Z,15.62
2022-08-12T03:04:27.405Z,15.72
2022-08-12T03:07:05.536Z,15.77
2022-08-12T03:09:44.034Z,15.82
2022-08-12T03:12:33.975Z,15.58
2022-08-12T03:15:06.650Z,15.75
2022-08-12T03:17:45.057Z,15.38
2022-08-12T03:20:17.302Z,15.58
2022-08-12T03:22:47.306Z,15.37
2022-08-12T03:25:18.089Z,15.49
2022-08-12T03:27:51.919Z,15.50
2022-08-12T03:30:21.635Z,15.30
2022-08-12T03:32:53.488Z,15.42
2022-08-12T03:35:40.711Z,15.53
2022-08-12T03:38:12.391Z,15.27
2022-08-12T03:41:13.584Z,15.26
2022-08-12T03:44:07.090Z,15.22
2022-08-12T03:46:57.548Z,15.46
2022-08-12T03:49:45.222Z,15.58
2022-08-12T03:52:31.636Z,15.55
2022-08-12T03:55:17.354Z,15.56
2022-08-12T03:58:03.299Z,15.53
2022-08-12T04:00:31.915Z,15.72
2022-08-12T04:03:03.424Z,15.61
2022-08-12T04:05:55.362Z,15.68
2022-08-12T04:08:25.375Z,15.96
2022-08-12T04:11:12.017Z,16.04
2022-08-12T04:13:40.880Z,16.34
2022-08-12T04:16:13.836Z,16.43
2022-08-12T04:18:42.755Z,16.47
2022-08-12T04:21:12.343Z,16.45
2022-08-12T04:23:47.642Z,16.61
2022-08-12T04:26:16.342Z,16.71
2022-08-12T04:28:45.013Z,16.68
2022-08-12T04:31:14.232Z,16.99
2022-08-12T04:33:43.875Z,16.99
2022-08-12T04:36:13.468Z,16.94
2022-08-12T04:38:43.445Z,17.21
2022-08-12T04:41:12.444Z,16.98
2022-08-12T04:43:59.702Z,17.33
2022-08-12T04:46:33.589Z,17.49
2022-08-12T04:49:06.569Z,17.20
2022-08-12T04:51:36.936Z,17.46
2022-08-12T04:54:06.098Z,17.68
2022-08-12T04:56:36.823Z,17.73
2022-08-12T04:59:06.335Z,17.87
2022-08-12T05:01:36.259Z,17.75
2022-08-12T05:04:06.398Z,18.04
2022-08-12T05:06:35.769Z,18.37
2022-08-12T05:09:10.931Z,18.43
2022-08-12T05:11:53.727Z,18.65
2022-08-12T05:14:22.646Z,18.76
2022-08-12T05:16:50.743Z,18.92
2022-08-12T05:19:22.589Z,19.08
2022-08-12T05:21:52.118Z,19.16
2022-08-12T05:24:20.188Z,19.41
2022-08-12T05:26:55.145Z,19.23
2022-08-12T05:30:06.759Z,19.60
2022-08-12T05:32:23.410Z,19.50
2022-08-12T05:34:51.780Z,19.60
2022-08-12T05:37:22.463Z,19.62
2022-08-12T05:39:51.138Z,19.88
2022-08-12T05:42:19.370Z,19.98
2022-08-12T05:45:02.133Z,19.86
2022-08-12T05:47:44.870Z,20.17
2022-08-12T05:50:18.556Z,20.16
2022-08-12T05:52:48.461Z,20.41
2022-08-12T05:55:17.112Z,20.50
2022-08-12T05:57:49.201Z,20.66
2022-08-12T06:00:18.499Z,20.79
2022-08-12T06:02:46.998Z,21.04
2022-08-12T06:05:15.287Z,20.92
2022-08-12T06:08:01.906Z,21.36
2022-08-12T06:10:33.160Z,21.62
2022-08-12T06:13:02.310Z,21.75
2022-08-12T06:15:31.364Z,21.32
2022-08-12T06:18:13.986Z,21.65
2022-08-12T06:20:44.851Z,21.65
2022-08-12T06:23:15.527Z,21.62
2022-08-12T06:25:46.544Z,21.54
2022-08-12T06:28:17.836Z,21.65
2022-08-12T06:31:02.381Z,21.48
2022-08-12T06:33:59.775Z,21.37
2022-08-12T06:36:30.046Z,21.16
2022-08-12T06:39:01.730Z,20.85
2022-08-12T06:42:30.768Z,20.85
2022-08-12T06:44:37.279Z,21.33
2022-08-12T06:47:05.734Z,21.41
2022-08-12T06:49:36.605Z,21.33
2022-08-12T06:52:05.091Z,21.69
2022-08-12T06:54:34.989Z,21.74
2022-08-12T06:58:06.298Z,21.71
2022-08-12T06:59:52.961Z,21.73
2022-08-12T07:02:23.567Z,21.73
2022-08-12T07:04:52.714Z,21.76
2022-08-12T07:07:21.564Z,22.10
2022-08-12T07:10:01.194Z,22.25
2022-08-12T07:12:37.171Z,22.54
2022-08-12T07:15:06.204Z,22.68
2022-08-12T07:17:37.830Z,22.61
2022-08-12T07:20:29.591Z,22.76
2022-08-12T07:22:57.894Z,23.00
2022-08-12T07:25:40.891Z,23.05
2022-08-12T07:28:16.926Z,23.20
2022-08-12T07:30:48.609Z,22.85
2022-08-12T07:33:29.373Z,22.98
2022-08-12T07:36:02.289Z,23.13
2022-08-12T07:38:33.823Z,23.17
2022-08-12T07:41:15.680Z,23.55
2022-08-12T07:43:51.324Z,23.26
2022-08-12T07:46:23.627Z,23.36
2022-08-12T07:48:54.412Z,23.71
2022-08-12T07:51:26.653Z,23.94
2022-08-12T07:54:02.847Z,24.08
2022-08-12T07:56:34.962Z,24.11
2022-08-12T07:59:06.080Z,24.23
2022-08-12T08:01:48.413Z,24.46
2022-08-12T08:04:39.833Z,24.73
2022-08-12T08:07:11.047Z,24.71
2022-08-12T08:09:42.124Z,24.91
2022-08-12T08:12:37.961Z,25.14
2022-08-12T08:15:08.573Z,25.55
2022-08-12T08:17:40.231Z,25.29
2022-08-12T08:20:12.487Z,25.71
2022-08-12T08:22:42.569Z,25.57
2022-08-12T08:25:36.198Z,25.36
2022-08-12T08:28:02.117Z,25.53
2022-08-12T08:30:33.776Z,25.79
2022-08-12T08:33:22.775Z,25.78
2022-08-12T08:36:02.060Z,25.87
2022-08-12T08:38:32.666Z,25.76
2022-08-12T08:42:17.882Z,25.86
2022-08-12T08:44:13.318Z,25.64
2022-08-12T08:46:44.722Z,25.86
2022-08-12T08:49:15.911Z,25.87
2022-08-12T08:51:45.178Z,26.13
2022-08-12T08:54:13.737Z,26.28
2022-08-12T08:56:46.557Z,26.50
2022-08-12T08:59:15.235Z,27.15
2022-08-12T09:01:44.796Z,27.36
2022-08-12T09:05:07.789Z,27.83
2022-08-12T09:07:58.450Z,28.27
2022-08-12T09:10:30.893Z,28.07
2022-08-12T09:13:23.145Z,28.27
2022-08-12T09:18:43.521Z,28.36
2022-08-12T09:21:12.939Z,28.23
2022-08-12T09:23:58.600Z,27.92
2022-08-12T09:26:31.643Z,28.46
2022-08-12T09:29:03.346Z,28.73
2022-08-12T09:32:06.914Z,29.34
2022-08-12T09:34:33.968Z,29.68
2022-08-12T09:37:20.417Z,31.12
2022-08-12T09:40:06.050Z,31.89
2022-08-12T09:43:17.132Z,32.97
2022-08-12T09:46:14.314Z,34.14
2022-08-12T09:48:40.286Z,34.95
2022-08-12T09:51:21.998Z,35.60
2022-08-12T09:54:10.576Z,36.38
2022-08-12T09:56:58.683Z,36.53
2022-08-12T10:00:17.721Z,37.00
2022-08-12T10:02:41.902Z,37.44
2022-08-12T10:05:20.284Z,38.49
2022-08-12T10:07:50.838Z,38.46
2022-08-12T10:10:24.039Z,38.90
2022-08-12T10:13:34.242Z,38.43
2022-08-12T10:16:06.428Z,38.07
2022-08-12T10:18:51.701Z,38.80
2022-08-12T10:21:35.437Z,38.97
2022-08-12T10:24:09.213Z,39.28
2022-08-12T10:26:58.260Z,39.68
2022-08-12T10:30:37.614Z,39.56
2022-08-12T10:32:45.396Z,39.27
2022-08-12T10:35:16.673Z,37.87
2022-08-12T10:41:01.212Z,37.90
2022-08-12T10:43:55.343Z,36.73
2022-08-12T10:46:30.952Z,36.44
2022-08-12T10:49:06.262Z,36.62
2022-08-12T10:52:03.569Z,35.64
2022-08-12T10:54:39.275Z,35.06
2022-08-12T10:57:18.526Z,35.63
2022-08-12T11:00:32.078Z,36.00
2022-08-12T11:04:31.293Z,36.11
2022-08-12T11:07:08.367Z,36.94
2022-08-12T11:08:46.471Z,37.77
2022-08-12T11:12:35.771Z,37.65
2022-08-12T11:14:47.872Z,37.09
2022-08-12T11:17:34.495Z,36.57
2022-08-12T11:19:50.280Z,36.52
2022-08-12T11:22:24.219Z,36.36
2022-08-12T11:24:56.526Z,36.91
2022-08-12T11:27:29.597Z,37.16
2022-08-12T11:30:05.791Z,37.77
2022-08-12T11:32:39.146Z,38.21
2022-08-12T11:35:11.453Z,38.55
2022-08-12T11:37:57.839Z,39.51
2022-08-12T11:40:28.454Z,38.96
2022-08-12T11:43:01.872Z,38.47
2022-08-12T11:45:47.979Z,37.76
2022-08-12T11:48:26.995Z,37.47
2022-08-12T11:50:57.217Z,37.71
2022-08-12T11:53:57.074Z,37.89
2022-08-12T11:56:15.321Z,37.93
2022-08-12T12:02:02.528Z,36.06
2022-08-12T12:04:29.170Z,35.34
2022-08-12T12:07:07.235Z,35.07
2022-08-12T12:09:52.364Z,34.39
2022-08-12T12:12:24.848Z,32.78
2022-08-12T12:15:03.119Z,31.76
2022-08-12T12:17:40.198Z,30.92
2022-08-12T12:20:13.604Z,30.78
2022-08-12T12:22:45.157Z,30.95
2022-08-12T12:25:16.822Z,31.05
2022-08-12T12:28:05.117Z,30.98
2022-08-12T12:30:39.405Z,30.63
2022-08-12T12:33:24.207Z,30.73
2022-08-12T12:36:19.812Z,31.41
2022-08-12T12:38:43.219Z,31.30
2022-08-12T12:41:16.897Z,31.24
2022-08-12T12:43:56.549Z,31.01
2022-08-12T12:46:32.017Z,30.87
2022-08-12T12:49:01.948Z,31.26
2022-08-12T12:51:58.125Z,31.38
2022-08-12T12:54:29.155Z,31.58
2022-08-12T12:56:57.296Z,31.46
2022-08-12T12:59:55.334Z,31.26
2022-08-12T13:02:31.484Z,31.08
2022-08-12T13:05:11.840Z,30.52
2022-08-12T13:07:54.274Z,30.50
2022-08-12T13:10:30.752Z,30.79
2022-08-12T13:14:07.605Z,31.63
2022-08-12T13:15:59.330Z,31.95
2022-08-12T13:18:39.250Z,31.43
2022-08-12T13:21:58.601Z,31.61
2022-08-12T13:24:31.755Z,32.11
2022-08-12T13:27:00.144Z,31.58
2022-08-12T13:29:33.468Z,31.42
2022-08-12T13:32:18.805Z,31.31
2022-08-12T13:34:52.802Z,31.98
2022-08-12T13:37:43.837Z,32.51
2022-08-12T13:40:25.744Z,33.18
2022-08-12T13:42:57.916Z,34.03
2022-08-12T13:45:26.986Z,34.60
2022-08-12T13:48:00.152Z,34.41
2022-08-12T13:50:32.629Z,34.41
2022-08-12T13:53:23.185Z,35.04
2022-08-12T13:55:59.491Z,36.11
2022-08-12T13:58:34.623Z,37.09
2022-08-12T14:01:06.515Z,37.54
2022-08-12T14:03:51.128Z,37.96
2022-08-12T14:06:21.222Z,39.22
2022-08-12T14:08:50.534Z,39.82
2022-08-12T14:11:25.269Z,39.57
2022-08-12T14:14:03.827Z,41.10
2022-08-12T14:16:46.681Z,40.30
2022-08-12T14:19:22.590Z,41.47
2022-08-12T14:22:01.263Z,42.55
2022-08-12T14:24:37.305Z,43.15
2022-08-12T14:27:11.451Z,42.84
2022-08-12T14:30:05.815Z,43.16
2022-08-12T14:32:35.553Z,44.42
2022-08-12T14:35:06.630Z,44.00
2022-08-12T14:37:55.280Z,43.48
2022-08-12T14:40:28.526Z,42.89
2022-08-12T14:42:59.683Z,42.35
2022-08-12T14:45:45.171Z,42.77
2022-08-12T14:48:24.062Z,42.54
2022-08-12T14:51:30.369Z,42.04
2022-08-12T14:55:10.905Z,41.26
2022-08-12T14:59:55.728Z,39.77
2022-08-12T15:02:28.664Z,39.84
2022-08-12T15:04:59.831Z,39.45
2022-08-12T15:07:33.337Z,39.43
2022-08-12T15:10:13.588Z,38.06
2022-08-12T15:12:41.864Z,37.94
2022-08-12T15:15:12.366Z,37.47
2022-08-12T15:17:40.587Z,37.50
2022-08-12T15:20:32.040Z,37.40
2022-08-12T15:23:18.090Z,36.85
2022-08-12T15:26:32.806Z,37.12
2022-08-12T15:29:06.829Z,36.81
2022-08-12T15:32:01.099Z,35.86
2022-08-12T15:34:30.846Z,34.38
2022-08-12T15:38:19.286Z,33.26
2022-08-12T15:44:16.632Z,33.06
2022-08-12T15:46:40.070Z,33.64
2022-08-12T15:49:17.067Z,34.06
2022-08-12T15:51:58.154Z,34.81
2022-08-12T15:54:35.548Z,35.13
2022-08-12T15:57:10.823Z,35.70
2022-08-12T16:00:04.053Z,35.69
2022-08-12T16:02:49.419Z,35.36
2022-08-12T16:06:12.029Z,34.82
2022-08-12T16:08:17.235Z,34.81
2022-08-12T16:10:49.138Z,34.84
2022-08-12T16:13:32.581Z,34.34
2022-08-12T16:16:12.154Z,33.99
2022-08-12T16:18:56.344Z,33.20
2022-08-12T16:21:52.336Z,33.18
2022-08-12T16:24:15.253Z,32.83
2022-08-12T16:26:45.213Z,31.87
2022-08-12T16:29:15.542Z,30.77
2022-08-12T16:31:48.159Z,29.82
2022-08-12T16:34:25.836Z,28.72
2022-08-12T16:37:07.990Z,27.43
2022-08-12T16:40:01.105Z,26.86
2022-08-12T16:42:28.871Z,26.34
2022-08-12T16:44:59.708Z,25.79
2022-08-12T16:47:58.310Z,25.36
2022-08-12T16:50:30.828Z,24.76
2022-08-12T16:53:03.246Z,24.69
2022-08-12T16:55:41.726Z,24.62
2022-08-12T16:58:28.495Z,24.53
2022-08-12T17:01:01.727Z,24.53
2022-08-12T17:03:32.581Z,24.40
2022-08-12T17:06:06.630Z,24.33
2022-08-12T17:08:36.245Z,24.12
2022-08-12T17:11:18.137Z,23.88
2022-08-12T17:13:53.603Z,23.82
2022-08-12T17:16:27.220Z,23.61
2022-08-12T17:19:03.347Z,23.59
2022-08-12T17:21:40.703Z,23.23
2022-08-12T17:24:22.302Z,22.94
2022-08-12T17:27:00.562Z,23.08
2022-08-12T17:30:01.260Z,22.68
2022-08-12T17:32:27.995Z,22.83
2022-08-12T17:35:14.636Z,22.70
2022-08-12T17:37:44.729Z,22.55
2022-08-12T17:40:34.718Z,22.55
2022-08-12T17:43:57.238Z,22.34
2022-08-12T17:45:59.024Z,22.31
2022-08-12T17:48:34.750Z,21.97
2022-08-12T17:51:15.737Z,22.12
2022-08-12T17:54:11.223Z,22.03
2022-08-12T17:56:37.993Z,21.63
2022-08-12T17:59:12.261Z,21.56
2022-08-12T18:01:45.583Z,21.53
2022-08-12T18:04:23.240Z,21.36
2022-08-12T18:07:08.530Z,21.52
2022-08-12T18:09:41.164Z,21.40
2022-08-12T18:12:31.764Z,21.31
2022-08-12T18:15:08.932Z,21.31
2022-08-12T18:17:39.303Z,21.14
2022-08-12T18:20:15.759Z,21.18
2022-08-12T18:33:25.848Z,20.55
2022-08-12T18:35:56.936Z,20.58
2022-08-12T18:38:29.005Z,20.10
2022-08-12T18:41:22.572Z,20.30
2022-08-12T18:44:02.713Z,19.96
2022-08-12T18:46:53.814Z,20.27
2022-08-12T18:50:18.480Z,20.17
2022-08-12T18:52:57.701Z,19.89
2022-08-12T18:55:26.186Z,19.83
2022-08-12T18:58:10.150Z,19.75
2022-08-12T19:00:40.349Z,19.84
2022-08-12T19:03:23.629Z,19.63
2022-08-12T19:06:05.793Z,19.65
2022-08-12T19:08:37.954Z,19.43
2022-08-12T19:11:25.294Z,19.64
2022-08-12T19:14:13.326Z,19.57
2022-08-12T19:16:43.958Z,19.53
2022-08-12T19:19:17.348Z,19.41
2022-08-12T19:21:56.629Z,19.26
2022-08-12T19:24:44.786Z,19.04
2022-08-12T19:27:18.084Z,19.04
2022-08-12T19:30:07.173Z,19.27
2022-08-12T19:32:35.516Z,19.19
2022-08-12T19:38:03.531Z,19.02
2022-08-12T19:40:38.659Z,18.95
2022-08-12T19:43:19.999Z,18.59
2022-08-12T19:45:51.661Z,18.55
2022-08-12T19:48:21.535Z,18.72
2022-08-12T19:50:52.999Z,18.43
2022-08-12T19:53:30.363Z,18.78
2022-08-12T19:56:19.871Z,18.33
2022-08-12T19:58:54.064Z,18.61
2022-08-12T20:01:26.516Z,18.45
2022-08-12T20:04:03.331Z,18.54
2022-08-12T20:06:40.592Z,18.44
2022-08-12T20:09:11.631Z,18.11
2022-08-12T20:12:13.651Z,18.28
2022-08-12T20:14:34.646Z,18.30
2022-08-12T20:17:05.189Z,18.13
2022-08-12T20:20:00.881Z,17.81
2022-08-12T20:22:39.295Z,17.80
2022-08-12T20:25:10.697Z,18.14
2022-08-12T20:28:04.603Z,18.07
2022-08-12T20:30:37.808Z,17.76
2022-08-12T20:33:32.268Z,17.87
2022-08-12T20:36:41.346Z,17.90
2022-08-12T20:38:57.021Z,17.89
2022-08-12T20:41:26.574Z,17.54
2022-08-12T20:43:59.731Z,17.48
2022-08-12T20:46:33.063Z,17.42
2022-08-12T20:49:14.498Z,17.42
2022-08-12T20:51:55.325Z,17.70
2022-08-12T20:54:32.809Z,17.48
2022-08-12T20:57:07.514Z,17.39
2022-08-12T20:59:47.738Z,17.28
2022-08-12T21:02:24.392Z,17.28
2022-08-12T21:05:16.110Z,17.20
2022-08-12T21:07:47.810Z,17.50
2022-08-12T21:10:21.371Z,17.19
2022-08-12T21:12:55.015Z,17.24
2022-08-12T21:15:30.788Z,17.13
2022-08-12T21:18:28.368Z,17.08
2022-08-12T21:20:58.897Z,17.27
2022-08-12T21:23:31.063Z,16.97
2022-08-12T21:26:16.316Z,17.17
2022-08-12T21:28:58.911Z,17.04
2022-08-12T21:32:36.285Z,17.12
2022-08-12T21:34:29.365Z,16.89
2022-08-12T21:37:26.804Z,16.66
2022-08-12T21:39:53.555Z,17.04
2022-08-12T21:42:29.363Z,17.01
2022-08-12T21:45:46.654Z,16.88
2022-08-12T21:47:53.284Z,16.92
2022-08-12T21:50:21.770Z,16.76
2022-08-12T21:52:54.842Z,16.87
2022-08-12T21:55:26.656Z,16.66
2022-08-12T21:58:02.976Z,16.54
2022-08-12T22:00:35.120Z,16.76
2022-08-12T22:04:03.407Z,16.64
2022-08-12T22:06:30.764Z,16.29
2022-08-12T22:09:16.022Z,16.54
2022-08-12T22:11:56.163Z,16.51
2022-08-12T22:14:29.078Z,16.54
2022-08-12T22:17:00.403Z,16.56
2022-08-12T22:19:35.007Z,16.31
2022-08-12T22:22:05.303Z,16.51
2022-08-12T22:27:52.719Z,16.57
2022-08-12T22:30:40.241Z,16.63
2022-08-12T22:33:15.805Z,16.37
2022-08-12T22:35:59.013Z,16.77
2022-08-12T22:38:29.999Z,16.77
2022-08-12T22:41:00.724Z,16.76
2022-08-12T22:44:00.925Z,16.47
2022-08-12T22:46:52.973Z,16.81
2022-08-12T22:49:25.977Z,16.81
2022-08-12T22:52:10.562Z,16.91
2022-08-12T22:54:59.905Z,16.82
2022-08-12T22:57:54.333Z,16.96
2022-08-12T23:00:27.986Z,16.78
2022-08-12T23:03:02.854Z,16.98
2022-08-12T23:05:57.863Z,16.76
2022-08-12T23:08:30.113Z,16.73
2022-08-12T23:11:05.990Z,16.61
2022-08-12T23:13:54.723Z,16.98
2022-08-12T23:16:29.472Z,16.95
2022-08-12T23:19:09.565Z,16.73
2022-08-12T23:22:04.107Z,16.85
2022-08-12T23:24:31.741Z,17.04
2022-08-12T23:27:21.376Z,17.02
2022-08-12T23:30:17.534Z,16.90
2022-08-12T23:32:38.111Z,16.94
2022-08-12T23:35:08.301Z,16.97
2022-08-12T23:37:47.091Z,16.94
2022-08-12T23:40:24.627Z,16.66
2022-08-12T23:42:54.323Z,16.80
2022-08-12T23:45:31.782Z,16.64
2022-08-12T23:48:03.299Z,16.98
2022-08-12T23:50:34.456Z,17.05
2022-08-12T23:53:05.542Z,17.03
2022-08-12T23:55:40.997Z,17.00
2022-08-12T23:58:21.400Z,17.06
